Time;durP1;ratioP1;P1;durP2;ratioP2;P2;SDS_P1;SDS_P2;PMS_P1;PMS_P2;Temp;Humidity;BMP_temperature;BMP_pressure;BME280_temperature;BME280_humidity;BME280_pressure;Samples;Min_cycle;Max_cycle;Signal;HPM_P1;HPM_P2
2021/07/16 00:01:27;;;;;;;13.93;5.83;;;19.80;99.90;;;;;;5050765;28;20316;-64
2021/07/16 00:03:55;;;;;;;18.63;6.37;;;19.70;99.90;;;;;;5056017;28;20234;-64
2021/07/16 00:06:29;;;;;;;16.03;5.77;;;19.70;99.90;;;;;;5070640;28;20242;-63
2021/07/16 00:08:58;;;;;;;13.47;6.47;;;19.60;99.90;;;;;;5065429;28;20234;-62
2021/07/16 00:11:29;;;;;;;17.60;5.87;;;19.60;99.90;;;;;;5051120;28;20282;-63
2021/07/16 00:13:58;;;;;;;22.60;6.50;;;19.60;99.90;;;;;;5050298;28;20238;-64
2021/07/16 00:16:28;;;;;;;16.03;5.93;;;19.60;99.90;;;;;;5050743;28;20284;-64
2021/07/16 00:18:58;;;;;;;13.43;6.43;;;19.60;99.90;;;;;;5055876;28;20276;-62
2021/07/16 00:21:28;;;;;;;16.10;6.50;;;19.50;99.90;;;;;;5070328;28;20276;-63
2021/07/16 00:23:58;;;;;;;22.43;6.50;;;19.60;99.90;;;;;;5070629;28;20238;-63
2021/07/16 00:26:29;;;;;;;16.63;6.37;;;19.50;99.90;;;;;;5070046;28;20249;-64
2021/07/16 00:28:58;;;;;;;18.23;6.63;;;19.50;99.90;;;;;;5066702;28;20242;-63
2021/07/16 00:31:30;;;;;;;18.20;6.47;;;19.50;99.90;;;;;;5030472;28;20248;-63
2021/07/16 00:34:00;;;;;;;20.73;7.30;;;19.40;99.90;;;;;;5041641;28;20270;-63
2021/07/16 00:36:29;;;;;;;17.33;6.73;;;19.40;99.90;;;;;;5070139;28;20648;-63
2021/07/16 00:38:59;;;;;;;19.17;7.27;;;19.40;99.90;;;;;;5069881;28;20241;-64
2021/07/16 00:41:30;;;;;;;16.23;6.67;;;19.30;99.90;;;;;;5069790;28;20737;-63
2021/07/16 00:43:59;;;;;;;16.77;6.70;;;19.40;99.90;;;;;;5059965;28;20238;-63
2021/07/16 00:46:29;;;;;;;17.80;7.97;;;19.40;99.90;;;;;;5068993;28;20253;-64
2021/07/16 00:48:58;;;;;;;16.23;7.40;;;19.30;99.90;;;;;;5069206;28;20294;-63
2021/07/16 00:51:28;;;;;;;19.10;7.17;;;19.30;99.90;;;;;;5068568;28;20234;-64
2021/07/16 00:53:57;;;;;;;22.57;8.00;;;19.20;99.90;;;;;;5063508;28;20699;-64
2021/07/16 00:56:27;;;;;;;21.60;8.10;;;19.30;99.90;;;;;;5048539;28;20293;-63
2021/07/16 00:58:58;;;;;;;22.70;7.63;;;19.20;99.90;;;;;;5053780;28;20230;-63
2021/07/16 01:01:28;;;;;;;20.90;7.87;;;19.20;99.90;;;;;;5064113;28;20238;-64
2021/07/16 01:03:58;;;;;;;17.33;8.20;;;19.20;99.90;;;;;;5048449;28;20239;-63
2021/07/16 01:06:29;;;;;;;20.53;8.43;;;19.10;99.90;;;;;;5048251;28;20242;-63
2021/07/16 01:08:58;;;;;;;24.27;8.63;;;19.20;99.90;;;;;;5048550;28;20295;-64
2021/07/16 01:11:28;;;;;;;23.47;9.23;;;19.10;99.90;;;;;;5048370;28;20654;-63
2021/07/16 01:13:59;;;;;;;18.93;8.10;;;19.10;99.90;;;;;;5053458;28;20242;-63
2021/07/16 01:16:28;;;;;;;25.43;8.27;;;19.10;99.90;;;;;;5067933;28;20242;-64
2021/07/16 01:18:59;;;;;;;26.57;8.10;;;19.00;99.90;;;;;;5068157;28;20341;-64
2021/07/16 01:21:32;;;;;;;23.27;7.87;;;19.00;99.90;;;;;;5066900;28;20292;-64
2021/07/16 01:24:06;;;;;;;28.10;9.07;;;19.00;99.90;;;;;;5058556;28;20322;-63
2021/07/16 01:26:36;;;;;;;19.53;7.63;;;19.00;99.90;;;;;;5067935;28;20240;-64
2021/07/16 01:29:11;;;;;;;19.73;7.93;;;19.00;99.90;;;;;;5060944;28;20237;-63
2021/07/16 01:31:42;;;;;;;20.07;7.63;;;19.00;99.90;;;;;;5049406;28;20245;-63
2021/07/16 01:34:11;;;;;;;17.97;7.53;;;19.00;99.90;;;;;;5056239;28;20311;-63
2021/07/16 01:36:41;;;;;;;24.70;7.93;;;19.00;99.90;;;;;;5061949;28;21843;-63
2021/07/16 01:39:11;;;;;;;25.97;7.93;;;19.00;99.90;;;;;;5056060;28;20238;-62
2021/07/16 01:41:40;;;;;;;19.37;7.40;;;19.00;99.90;;;;;;5069126;28;20256;-64
2021/07/16 01:44:10;;;;;;;22.50;7.77;;;18.90;99.90;;;;;;5062082;28;20239;-64
2021/07/16 01:46:39;;;;;;;21.77;7.50;;;18.90;99.90;;;;;;5048751;28;20654;-63
2021/07/16 01:49:08;;;;;;;24.10;7.90;;;18.90;99.90;;;;;;5055679;28;20237;-63
2021/07/16 01:51:38;;;;;;;22.93;7.77;;;18.90;99.90;;;;;;5068919;28;20242;-64
2021/07/16 01:54:07;;;;;;;21.83;7.77;;;18.90;99.90;;;;;;5061993;28;20317;-64
2021/07/16 01:56:38;;;;;;;23.57;7.23;;;18.80;99.90;;;;;;5048805;28;20294;-64
2021/07/16 01:59:08;;;;;;;20.70;6.83;;;18.80;99.90;;;;;;5048291;28;20238;-63
2021/07/16 02:01:36;;;;;;;22.53;7.80;;;18.80;99.90;;;;;;5049065;28;20247;-63
2021/07/16 02:04:05;;;;;;;24.60;7.90;;;18.80;99.90;;;;;;5047885;28;20724;-63
2021/07/16 02:06:33;;;;;;;21.97;7.40;;;18.80;99.90;;;;;;5048615;28;20247;-63
2021/07/16 02:09:01;;;;;;;22.17;7.87;;;18.80;99.90;;;;;;5048257;28;20353;-63
2021/07/16 02:11:29;;;;;;;20.07;7.70;;;18.80;99.90;;;;;;5048635;28;20232;-63
2021/07/16 02:14:00;;;;;;;21.83;7.23;;;18.70;99.90;;;;;;5053658;28;20653;-63
2021/07/16 02:16:29;;;;;;;24.50;7.97;;;18.70;99.90;;;;;;5068337;28;20288;-64
2021/07/16 02:18:57;;;;;;;21.50;7.53;;;18.80;99.90;;;;;;5048998;28;20235;-63
2021/07/16 02:21:25;;;;;;;21.53;7.57;;;18.70;99.90;;;;;;5048856;28;20241;-64
2021/07/16 02:23:53;;;;;;;24.20;8.03;;;18.60;99.90;;;;;;5053187;28;20233;-64
2021/07/16 02:26:21;;;;;;;23.93;6.97;;;18.60;99.90;;;;;;5063065;28;20572;-64
2021/07/16 02:28:49;;;;;;;22.07;7.60;;;18.60;99.90;;;;;;5054635;28;20239;-64
2021/07/16 02:31:19;;;;;;;25.50;7.47;;;18.70;99.90;;;;;;5068449;28;20618;-63
2021/07/16 02:33:47;;;;;;;26.27;8.10;;;18.60;99.90;;;;;;5068063;28;20249;-63
2021/07/16 02:36:18;;;;;;;19.33;6.60;;;18.60;99.90;;;;;;5068220;28;20234;-63
2021/07/16 02:38:46;;;;;;;22.87;7.37;;;18.60;99.90;;;;;;5055216;28;20705;-64
2021/07/16 02:41:14;;;;;;;18.77;6.87;;;18.60;99.90;;;;;;5068264;28;20238;-64
2021/07/16 02:43:42;;;;;;;25.87;7.73;;;18.70;99.90;;;;;;5064516;28;20771;-63
2021/07/16 02:46:10;;;;;;;28.67;8.23;;;18.60;99.90;;;;;;5047673;28;20242;-63
2021/07/16 02:48:41;;;;;;;24.87;7.67;;;18.60;99.90;;;;;;5047405;28;20252;-63
2021/07/16 02:51:10;;;;;;;27.17;7.90;;;18.60;99.90;;;;;;5048014;28;20324;-63
2021/07/16 02:53:38;;;;;;;25.77;8.27;;;18.70;99.90;;;;;;5050241;28;20281;-63
2021/07/16 02:56:06;;;;;;;24.33;7.27;;;18.60;99.90;;;;;;5067795;28;20241;-63
2021/07/16 02:58:34;;;;;;;22.53;7.83;;;18.50;99.90;;;;;;5052681;28;20311;-63
2021/07/16 03:01:03;;;;;;;25.73;7.77;;;18.60;99.90;;;;;;5045703;28;20320;-64
2021/07/16 03:03:31;;;;;;;20.63;7.07;;;18.70;99.90;;;;;;5047863;28;20250;-63
2021/07/16 03:06:01;;;;;;;26.13;7.73;;;18.70;99.90;;;;;;5060382;28;20234;-63
2021/07/16 03:08:29;;;;;;;20.63;6.87;;;18.70;99.90;;;;;;5048179;28;20242;-64
2021/07/16 03:10:57;;;;;;;21.67;7.43;;;18.70;99.90;;;;;;5067079;28;20240;-63
2021/07/16 03:13:26;;;;;;;24.13;7.67;;;18.70;99.90;;;;;;5066858;28;20778;-65
2021/07/16 03:15:54;;;;;;;23.40;7.77;;;18.70;99.90;;;;;;5066574;28;20247;-63
2021/07/16 03:18:23;;;;;;;24.87;8.00;;;18.70;99.90;;;;;;5055384;28;20241;-64
2021/07/16 03:20:51;;;;;;;23.63;7.60;;;18.70;99.90;;;;;;5067705;28;20233;-64
2021/07/16 03:23:21;;;;;;;21.67;7.03;;;18.80;99.90;;;;;;5067214;28;20295;-64
2021/07/16 03:25:50;;;;;;;17.33;7.00;;;18.80;99.90;;;;;;5066840;28;20676;-63
2021/07/16 03:28:19;;;;;;;23.30;7.07;;;18.80;99.90;;;;;;5055646;28;20239;-64
2021/07/16 03:30:47;;;;;;;17.40;7.37;;;18.80;99.90;;;;;;5047021;28;20235;-64
2021/07/16 03:33:15;;;;;;;22.10;7.13;;;18.80;99.90;;;;;;5047365;28;20231;-64
2021/07/16 03:35:43;;;;;;;22.33;7.97;;;18.80;99.90;;;;;;5046536;28;20233;-63
2021/07/16 03:38:11;;;;;;;23.20;7.63;;;18.80;99.90;;;;;;5046542;28;20260;-64
2021/07/16 03:40:41;;;;;;;22.43;7.40;;;18.80;99.90;;;;;;5066050;28;20304;-63
2021/07/16 03:43:09;;;;;;;24.03;7.60;;;18.70;99.90;;;;;;5067257;28;20287;-64
2021/07/16 03:45:37;;;;;;;25.13;8.10;;;18.70;99.90;;;;;;5047338;28;20230;-63
2021/07/16 03:48:06;;;;;;;21.87;7.33;;;18.70;99.90;;;;;;5046699;28;20344;-64
2021/07/16 03:50:34;;;;;;;21.83;7.13;;;18.70;99.90;;;;;;5046309;28;20247;-63
2021/07/16 03:53:02;;;;;;;24.97;8.20;;;18.70;99.90;;;;;;5046869;28;20242;-63
2021/07/16 03:55:31;;;;;;;19.50;7.17;;;18.70;99.90;;;;;;5064706;28;20292;-63
2021/07/16 03:58:01;;;;;;;21.73;8.00;;;18.70;99.90;;;;;;5058192;28;20730;-63
2021/07/16 04:00:30;;;;;;;22.70;7.70;;;18.70;99.90;;;;;;5046509;28;20247;-64
2021/07/16 04:02:59;;;;;;;25.80;7.80;;;18.80;99.90;;;;;;5046703;28;20238;-63
2021/07/16 04:05:30;;;;;;;18.87;6.83;;;18.80;99.90;;;;;;5064050;28;20226;-63
2021/07/16 04:08:03;;;;;;;20.50;7.03;;;18.80;99.90;;;;;;5058312;28;20242;-63
2021/07/16 04:10:33;;;;;;;21.67;7.13;;;18.90;99.90;;;;;;5046210;28;20230;-64
2021/07/16 04:13:05;;;;;;;22.87;7.97;;;18.90;99.90;;;;;;5047044;28;20242;-64
2021/07/16 04:15:34;;;;;;;23.37;7.10;;;18.90;99.90;;;;;;5064608;28;20229;-64
2021/07/16 04:18:04;;;;;;;22.87;7.77;;;19.00;99.90;;;;;;5058045;28;20226;-63
2021/07/16 04:20:33;;;;;;;20.80;7.40;;;19.00;99.90;;;;;;5064783;28;20281;-63
2021/07/16 04:23:03;;;;;;;20.80;7.13;;;19.00;99.90;;;;;;5067118;28;20636;-63
2021/07/16 04:25:31;;;;;;;22.17;7.20;;;19.10;99.90;;;;;;5047844;28;20246;-64
2021/07/16 04:28:00;;;;;;;19.17;7.50;;;19.10;99.90;;;;;;5049660;28;20314;-63
2021/07/16 04:30:31;;;;;;;19.97;7.00;;;19.20;99.90;;;;;;5047760;28;20249;-63
2021/07/16 04:33:01;;;;;;;22.17;7.17;;;19.30;99.90;;;;;;5050511;28;20654;-63
2021/07/16 04:35:30;;;;;;;16.83;6.97;;;19.30;99.90;;;;;;5066094;28;20242;-63
2021/07/16 04:37:58;;;;;;;24.43;8.30;;;19.20;99.90;;;;;;5062533;28;20235;-63
2021/07/16 04:40:27;;;;;;;27.00;7.10;;;19.20;99.90;;;;;;5049279;28;20246;-65
2021/07/16 04:42:56;;;;;;;26.50;6.63;;;19.20;99.90;;;;;;5050178;28;20245;-63
2021/07/16 04:45:25;;;;;;;22.37;6.90;;;19.30;99.90;;;;;;5066693;28;20237;-64
2021/07/16 04:47:55;;;;;;;21.33;7.03;;;19.30;99.90;;;;;;5063126;28;20227;-63
2021/07/16 04:50:23;;;;;;;22.20;7.60;;;19.20;99.90;;;;;;5066382;28;20246;-63
2021/07/16 04:52:52;;;;;;;20.73;6.73;;;19.20;99.90;;;;;;5070199;28;20238;-63
2021/07/16 04:55:21;;;;;;;20.57;6.67;;;19.20;99.90;;;;;;5065961;28;20948;-64
2021/07/16 04:57:50;;;;;;;21.73;7.20;;;19.30;99.90;;;;;;5049546;28;20249;-63
2021/07/16 05:00:19;;;;;;;20.50;6.40;;;19.30;99.90;;;;;;5066227;28;20242;-63
2021/07/16 05:02:48;;;;;;;20.07;7.30;;;19.40;99.90;;;;;;5069677;28;20230;-64
2021/07/16 05:05:17;;;;;;;26.20;6.93;;;19.40;99.90;;;;;;5057660;28;20250;-63
2021/07/16 05:07:46;;;;;;;19.70;6.97;;;19.50;99.90;;;;;;5049212;28;20239;-64
2021/07/16 05:10:14;;;;;;;23.17;6.53;;;19.50;99.90;;;;;;5064983;28;20264;-62
2021/07/16 05:12:43;;;;;;;18.37;6.60;;;19.60;99.90;;;;;;5058724;28;20239;-63
2021/07/16 05:15:13;;;;;;;22.73;7.40;;;19.70;99.90;;;;;;5048940;28;20230;-64
2021/07/16 05:17:41;;;;;;;20.63;6.30;;;19.70;99.90;;;;;;5049194;28;20246;-64
2021/07/16 05:20:10;;;;;;;21.57;6.80;;;19.80;99.90;;;;;;5063649;28;20238;-64
2021/07/16 05:22:40;;;;;;;22.67;7.50;;;19.90;99.90;;;;;;5069324;28;20605;-63
2021/07/16 05:25:09;;;;;;;23.97;7.63;;;20.00;99.90;;;;;;5067662;28;20278;-64
2021/07/16 05:27:39;;;;;;;21.03;6.63;;;20.10;99.90;;;;;;5068745;28;20227;-64
2021/07/16 05:30:08;;;;;;;20.90;6.90;;;20.20;99.90;;;;;;5065213;28;20246;-62
2021/07/16 05:32:36;;;;;;;18.40;6.57;;;20.40;99.90;;;;;;5068564;28;20254;-63
2021/07/16 05:35:05;;;;;;;21.30;6.17;;;20.50;99.90;;;;;;5052467;28;20236;-63
2021/07/16 05:37:34;;;;;;;23.27;6.67;;;20.70;99.90;;;;;;5043635;28;20238;-64
2021/07/16 05:40:04;;;;;;;23.00;6.90;;;21.10;99.90;;;;;;5026324;28;20244;-64
2021/07/16 05:42:32;;;;;;;22.77;6.30;;;21.20;99.90;;;;;;5022494;28;20238;-64
2021/07/16 05:45:00;;;;;;;20.37;6.70;;;21.50;99.90;;;;;;5022853;28;20928;-63
2021/07/16 05:47:28;;;;;;;20.03;6.20;;;21.50;99.90;;;;;;5023024;28;20267;-65
2021/07/16 05:49:57;;;;;;;20.70;6.27;;;21.70;99.90;;;;;;5022974;28;20248;-63
2021/07/16 05:52:26;;;;;;;22.23;6.93;;;22.00;99.90;;;;;;5023062;28;20321;-64
2021/07/16 05:54:55;;;;;;;21.73;6.03;;;22.00;99.90;;;;;;5023840;28;20233;-64
2021/07/16 05:57:24;;;;;;;22.10;6.53;;;22.10;99.90;;;;;;5022969;28;20298;-63
2021/07/16 05:59:52;;;;;;;24.57;6.00;;;22.20;99.90;;;;;;5022601;28;20251;-63
2021/07/16 06:02:23;;;;;;;25.43;6.50;;;22.20;99.90;;;;;;5023468;28;20244;-64
2021/07/16 06:04:52;;;;;;;24.07;6.87;;;22.10;99.90;;;;;;5042743;28;20671;-63
2021/07/16 06:07:20;;;;;;;24.63;6.57;;;21.90;99.90;;;;;;5042793;28;20247;-64
2021/07/16 06:09:48;;;;;;;25.13;7.07;;;21.90;99.90;;;;;;5054102;28;20250;-63
2021/07/16 06:12:17;;;;;;;22.33;6.50;;;21.90;99.90;;;;;;5062316;28;20737;-63
2021/07/16 06:14:46;;;;;;;23.13;6.07;;;21.80;99.90;;;;;;5049541;28;20309;-65
2021/07/16 06:17:14;;;;;;;30.97;6.83;;;21.80;99.90;;;;;;5043186;28;20254;-64
2021/07/16 06:19:42;;;;;;;20.40;6.63;;;21.60;99.90;;;;;;5053606;28;20246;-65
2021/07/16 06:22:10;;;;;;;20.87;6.17;;;21.70;99.90;;;;;;5063020;28;20235;-64
2021/07/16 06:24:39;;;;;;;27.13;7.00;;;21.80;99.90;;;;;;5054229;28;20361;-65
2021/07/16 06:27:07;;;;;;;22.77;6.33;;;22.00;99.90;;;;;;5031198;28;20245;-66
2021/07/16 06:29:35;;;;;;;23.63;6.30;;;22.30;99.90;;;;;;5036477;28;20294;-65
2021/07/16 06:32:06;;;;;;;22.90;6.30;;;22.40;99.90;;;;;;5028721;28;20275;-64
2021/07/16 06:34:34;;;;;;;23.97;6.87;;;22.20;99.90;;;;;;5039002;28;20239;-65
2021/07/16 06:37:04;;;;;;;24.40;5.83;;;22.10;99.90;;;;;;5046101;28;20238;-64
2021/07/16 06:39:32;;;;;;;18.83;5.73;;;21.90;99.90;;;;;;5037672;28;20332;-65
2021/07/16 06:42:03;;;;;;;20.63;6.03;;;22.00;99.90;;;;;;5029480;28;21082;-64
2021/07/16 06:44:31;;;;;;;20.27;6.10;;;22.10;99.90;;;;;;5029337;28;20685;-65
2021/07/16 06:46:59;;;;;;;22.17;6.13;;;22.10;99.90;;;;;;5028751;28;20791;-64
2021/07/16 06:49:30;;;;;;;20.33;5.83;;;22.30;99.90;;;;;;5037330;28;20254;-65
2021/07/16 06:51:59;;;;;;;21.23;5.40;;;22.60;99.90;;;;;;5034250;28;20263;-66
2021/07/16 06:54:28;;;;;;;21.93;5.90;;;23.00;99.90;;;;;;5047841;28;20491;-66
2021/07/16 06:56:56;;;;;;;24.73;6.43;;;23.40;99.90;;;;;;5041552;28;20249;-66
2021/07/16 06:59:25;;;;;;;19.90;5.67;;;23.80;99.90;;;;;;5048139;28;20261;-64
2021/07/16 07:01:53;;;;;;;25.73;6.60;;;23.90;99.90;;;;;;5062885;28;20231;-66
2021/07/16 07:04:23;;;;;;;21.53;6.10;;;23.90;99.90;;;;;;5053247;28;20255;-66
2021/07/16 07:06:53;;;;;;;21.83;5.93;;;23.90;99.90;;;;;;5042354;28;20592;-66
2021/07/16 07:09:22;;;;;;;19.03;5.90;;;23.90;99.90;;;;;;5038628;28;20645;-66
2021/07/16 07:11:50;;;;;;;23.07;5.73;;;23.90;99.90;;;;;;5042522;28;20243;-66
2021/07/16 07:14:18;;;;;;;18.90;5.97;;;23.80;99.90;;;;;;5043207;28;20239;-65
2021/07/16 07:16:46;;;;;;;21.67;6.20;;;23.70;99.90;;;;;;5042227;28;20232;-66
2021/07/16 07:19:15;;;;;;;24.27;6.17;;;23.90;99.90;;;;;;5043959;28;20247;-66
2021/07/16 07:21:43;;;;;;;24.13;5.93;;;24.20;99.90;;;;;;5042163;28;20247;-66
2021/07/16 07:24:13;;;;;;;22.53;6.33;;;24.10;99.90;;;;;;5028576;28;20356;-66
2021/07/16 07:26:41;;;;;;;27.43;6.20;;;24.10;99.90;;;;;;5021768;28;20232;-66
2021/07/16 07:29:09;;;;;;;21.00;5.83;;;24.20;99.90;;;;;;5024209;28;20574;-66
2021/07/16 07:31:37;;;;;;;20.67;5.50;;;24.30;99.90;;;;;;5020219;28;20605;-66
2021/07/16 07:34:05;;;;;;;20.37;5.00;;;24.60;99.90;;;;;;5020359;28;20241;-66
2021/07/16 07:36:34;;;;;;;21.33;5.70;;;25.10;99.90;;;;;;5022788;28;20356;-66
2021/07/16 07:39:02;;;;;;;21.60;5.87;;;25.50;99.90;;;;;;5020155;28;20286;-66
2021/07/16 07:41:31;;;;;;;21.67;5.40;;;25.50;99.90;;;;;;5020193;28;20277;-66
2021/07/16 07:44:00;;;;;;;23.10;6.03;;;25.40;99.90;;;;;;5022406;28;20725;-66
2021/07/16 07:46:28;;;;;;;24.57;5.60;;;25.40;99.90;;;;;;5027206;28;20346;-66
2021/07/16 07:48:56;;;;;;;21.97;5.27;;;25.60;99.90;;;;;;5022975;28;20595;-66
2021/07/16 07:51:24;;;;;;;22.53;5.47;;;25.90;99.90;;;;;;5024889;28;20562;-66
2021/07/16 07:53:53;;;;;;;21.23;5.77;;;26.10;99.90;;;;;;5022552;28;20229;-66
2021/07/16 07:56:32;;;;;;;24.00;6.23;;;26.00;99.90;;;;;;5045513;28;20328;-66
2021/07/16 07:59:00;;;;;;;20.03;5.87;;;26.10;99.90;;;;;;5043798;28;20640;-66
2021/07/16 08:01:32;;;;;;;22.27;5.73;;;26.20;99.90;;;;;;5041065;28;20249;-66
2021/07/16 08:04:01;;;;;;;23.87;6.37;;;26.10;99.90;;;;;;5049191;28;20721;-66
2021/07/16 08:06:29;;;;;;;21.27;5.33;;;26.00;99.90;;;;;;5040730;28;20238;-66
2021/07/16 08:08:58;;;;;;;24.60;6.03;;;26.20;99.90;;;;;;5036460;28;20238;-66
2021/07/16 08:11:27;;;;;;;19.63;5.43;;;26.50;99.90;;;;;;5035800;28;20262;-66
2021/07/16 08:13:56;;;;;;;21.30;5.53;;;26.70;99.90;;;;;;5042683;28;20238;-66
2021/07/16 08:16:25;;;;;;;19.43;5.07;;;26.80;99.90;;;;;;5032605;28;20275;-66
2021/07/16 08:18:53;;;;;;;20.80;5.27;;;26.70;99.90;;;;;;5036693;28;20238;-66
2021/07/16 08:21:22;;;;;;;25.93;6.00;;;26.90;99.90;;;;;;5041080;28;20302;-66
2021/07/16 08:23:51;;;;;;;21.83;6.23;;;27.20;99.90;;;;;;5042581;28;20254;-67
2021/07/16 08:26:19;;;;;;;22.73;5.80;;;27.10;99.90;;;;;;5039126;28;20608;-66
2021/07/16 08:28:52;;;;;;;23.03;6.03;;;26.80;99.90;;;;;;5040359;28;20283;-66
2021/07/16 08:31:24;;;;;;;21.17;5.13;;;26.70;99.90;;;;;;5033761;28;20665;-66
2021/07/16 08:33:52;;;;;;;23.50;6.30;;;26.60;99.90;;;;;;5032538;28;20441;-67
2021/07/16 08:36:21;;;;;;;18.57;5.93;;;26.90;99.90;;;;;;5038834;28;20243;-66
2021/07/16 08:38:49;;;;;;;24.50;6.10;;;27.30;99.90;;;;;;5044005;28;20337;-66
2021/07/16 08:41:21;;;;;;;24.37;6.80;;;27.50;99.90;;;;;;5045274;28;20293;-66
2021/07/16 08:43:51;;;;;;;21.83;5.63;;;27.60;99.90;;;;;;5045972;28;20974;-66
2021/07/16 08:46:19;;;;;;;22.60;5.93;;;28.00;99.90;;;;;;5033612;28;20656;-66
2021/07/16 08:48:49;;;;;;;20.97;6.27;;;28.00;99.90;;;;;;5024319;28;20255;-65
2021/07/16 08:51:19;;;;;;;21.97;5.87;;;27.80;99.90;;;;;;5023743;28;20715;-65
2021/07/16 08:53:50;;;;;;;23.53;6.40;;;27.50;99.90;;;;;;5025661;28;20231;-65
2021/07/16 08:56:25;;;;;;;22.43;5.60;;;27.60;99.90;;;;;;5043227;28;20706;-66
2021/07/16 08:58:54;;;;;;;23.37;6.30;;;27.40;99.90;;;;;;5043437;28;20243;-65
2021/07/16 09:01:22;;;;;;;21.60;6.20;;;27.20;99.90;;;;;;5044290;28;20716;-66
2021/07/16 09:04:00;;;;;;;24.53;6.33;;;27.10;99.90;;;;;;5041845;28;20772;-65
2021/07/16 09:06:46;;;;;;;32.30;6.77;;;27.10;99.90;;;;;;5040080;28;20630;-65
2021/07/16 09:09:17;;;;;;;25.00;6.57;;;27.30;99.90;;;;;;5014120;28;20525;-65
2021/07/16 09:11:47;;;;;;;26.77;7.00;;;27.20;99.90;;;;;;5027617;28;20270;-65
2021/07/16 09:14:21;;;;;;;23.57;6.40;;;27.20;99.90;;;;;;5033163;28;20545;-64
2021/07/16 09:17:01;;;;;;;25.00;6.37;;;27.00;99.90;;;;;;5066462;28;20238;-65
2021/07/16 09:19:34;;;;;;;27.30;6.47;;;27.30;99.90;;;;;;5066173;28;20295;-65
2021/07/16 09:22:13;;;;;;;25.47;6.47;;;27.80;99.90;;;;;;5066577;28;20240;-64
2021/07/16 09:24:44;;;;;;;23.80;5.93;;;28.50;99.90;;;;;;5066194;28;20250;-65
2021/07/16 09:27:33;;;;;;;19.27;5.57;;;28.90;99.90;;;;;;5066208;28;20690;-65
2021/07/16 09:30:13;;;;;;;20.37;5.30;;;28.90;99.90;;;;;;5048318;28;20325;-65
2021/07/16 09:32:43;;;;;;;22.13;5.43;;;29.00;99.90;;;;;;5045624;28;20269;-65
2021/07/16 09:35:18;;;;;;;22.77;5.90;;;28.50;99.90;;;;;;5045636;28;20247;-66
2021/07/16 09:37:51;;;;;;;19.13;5.23;;;28.10;99.90;;;;;;5045971;28;20255;-66
2021/07/16 09:40:25;;;;;;;21.20;5.73;;;28.20;99.90;;;;;;5062798;28;21049;-65
2021/07/16 09:43:04;;;;;;;18.13;5.07;;;28.40;99.90;;;;;;5066053;28;20242;-65
2021/07/16 09:45:33;;;;;;;22.47;6.00;;;28.40;99.90;;;;;;5047026;28;20234;-65
2021/07/16 09:48:25;;;;;;;17.47;5.30;;;28.10;99.90;;;;;;5046031;28;20668;-65
2021/07/16 09:51:16;;;;;;;20.47;5.90;;;28.10;99.90;;;;;;5044497;28;20240;-65
2021/07/16 09:53:48;;;;;;;17.20;5.50;;;28.60;99.90;;;;;;5045182;28;20249;-65
2021/07/16 09:56:19;;;;;;;21.07;5.53;;;29.20;99.90;;;;;;5045624;28;20240;-66
2021/07/16 09:58:49;;;;;;;22.33;5.77;;;29.30;99.90;;;;;;5045462;28;20834;-66
2021/07/16 10:01:17;;;;;;;16.27;5.33;;;29.50;99.90;;;;;;5045846;28;20726;-65
2021/07/16 10:03:46;;;;;;;22.47;6.10;;;29.90;99.90;;;;;;5045362;28;20318;-66
2021/07/16 10:06:16;;;;;;;17.40;5.67;;;29.70;99.90;;;;;;5045613;28;20335;-66
2021/07/16 10:08:44;;;;;;;19.73;5.00;;;30.10;99.90;;;;;;5045532;28;20272;-65
2021/07/16 10:11:19;;;;;;;16.83;5.50;;;30.50;99.90;;;;;;5045663;28;20247;-66
2021/07/16 10:13:50;;;;;;;17.73;5.20;;;30.70;99.90;;;;;;5048925;28;20270;-65
2021/07/16 10:16:18;;;;;;;19.60;5.90;;;30.70;99.90;;;;;;5065446;28;20246;-65
2021/07/16 10:18:47;;;;;;;20.83;6.27;;;30.90;99.90;;;;;;5065345;28;20640;-66
2021/07/16 10:21:19;;;;;;;21.33;5.73;;;30.80;99.90;;;;;;5065423;28;20245;-66
2021/07/16 10:23:49;;;;;;;17.30;5.50;;;30.80;99.90;;;;;;5063427;28;20235;-65
2021/07/16 10:26:21;;;;;;;20.60;5.47;;;30.80;99.90;;;;;;5044933;28;20291;-65
2021/07/16 10:28:50;;;;;;;18.37;5.57;;;30.80;99.90;;;;;;5052068;28;20702;-66
2021/07/16 10:31:42;;;;;;;18.13;5.77;;;30.90;99.90;;;;;;5065218;28;20243;-65
2021/07/16 10:34:36;;;;;;;21.17;5.80;;;30.60;99.90;;;;;;5053715;28;20300;-66
2021/07/16 10:37:12;;;;;;;19.17;5.57;;;30.20;99.90;;;;;;5043003;28;20269;-65
2021/07/16 10:39:49;;;;;;;15.60;5.07;;;30.00;99.90;;;;;;5044430;28;20294;-66
2021/07/16 10:42:44;;;;;;;17.60;5.73;;;30.00;99.90;;;;;;5045175;28;20252;-65
2021/07/16 10:45:13;;;;;;;17.53;5.53;;;30.50;99.90;;;;;;5035991;28;20806;-66
2021/07/16 10:47:43;;;;;;;18.23;5.80;;;30.60;99.90;;;;;;5033920;28;20242;-66
2021/07/16 10:50:14;;;;;;;19.20;5.47;;;31.00;99.90;;;;;;5039316;28;20877;-66
2021/07/16 10:52:46;;;;;;;18.10;5.20;;;31.10;99.90;;;;;;5032884;28;20236;-66
2021/07/16 10:55:16;;;;;;;19.70;5.53;;;31.10;99.90;;;;;;5033670;28;20722;-65
2021/07/16 10:57:46;;;;;;;15.73;5.07;;;31.00;99.90;;;;;;5033828;28;20242;-66
2021/07/16 11:00:48;;;;;;;20.10;4.80;;;30.60;99.90;;;;;;5035358;28;20433;-67
2021/07/16 11:03:19;;;;;;;17.43;4.93;;;30.90;99.90;;;;;;5040975;28;20758;-67
2021/07/16 11:05:52;;;;;;;15.37;4.80;;;31.20;99.90;;;;;;5044291;28;20759;-67
2021/07/16 11:08:58;;;;;;;17.23;4.70;;;31.30;99.90;;;;;;5035476;28;20778;-67
2021/07/16 11:11:45;;;;;;;15.13;4.70;;;31.80;99.90;;;;;;5034206;28;21832;-67
2021/07/16 11:14:23;;;;;;;15.77;4.80;;;31.60;99.90;;;;;;5030599;28;20365;-67
2021/07/16 11:17:02;;;;;;;20.07;5.07;;;31.80;99.90;;;;;;5036480;28;20505;-67
2021/07/16 11:19:32;;;;;;;15.80;5.30;;;31.70;99.90;;;;;;5034390;28;20319;-67
2021/07/16 11:22:02;;;;;;;21.03;5.30;;;31.90;99.90;;;;;;5034064;28;20727;-67
2021/07/16 11:24:34;;;;;;;16.30;5.47;;;31.70;99.90;;;;;;5031800;28;20574;-67
2021/07/16 11:27:08;;;;;;;20.40;5.27;;;31.40;99.90;;;;;;5036748;28;20246;-67
2021/07/16 11:29:39;;;;;;;15.67;4.80;;;31.60;99.90;;;;;;5033861;28;20349;-67
2021/07/16 11:32:11;;;;;;;19.53;5.50;;;32.10;99.90;;;;;;5033731;28;21137;-67
2021/07/16 11:34:47;;;;;;;16.03;4.90;;;32.10;99.90;;;;;;5031866;28;20292;-67
2021/07/16 11:37:27;;;;;;;19.37;4.97;;;32.30;99.90;;;;;;5039665;28;20257;-67
2021/07/16 11:40:03;;;;;;;18.20;5.13;;;32.30;99.90;;;;;;5034646;28;20670;-67
2021/07/16 11:42:33;;;;;;;14.67;5.13;;;32.30;99.90;;;;;;5034684;28;20250;-67
2021/07/16 11:45:01;;;;;;;17.27;5.73;;;32.50;99.90;;;;;;5030089;28;20254;-67
2021/07/16 11:47:32;;;;;;;12.50;4.83;;;32.20;99.90;;;;;;5042720;28;20263;-67
2021/07/16 11:50:01;;;;;;;17.33;4.90;;;32.40;99.90;;;;;;5033451;28;20258;-67
2021/07/16 11:52:30;;;;;;;14.83;4.63;;;32.50;99.90;;;;;;5034094;28;20330;-68
2021/07/16 11:55:09;;;;;;;20.70;5.60;;;32.50;99.90;;;;;;5032066;28;20721;-67
2021/07/16 11:57:51;;;;;;;19.23;5.27;;;32.10;99.90;;;;;;5034276;28;20654;-67
2021/07/16 12:00:20;;;;;;;16.50;4.73;;;31.70;99.90;;;;;;5034361;28;20246;-66
2021/07/16 12:02:48;;;;;;;16.87;4.97;;;31.70;99.90;;;;;;5032918;28;20260;-67
2021/07/16 12:05:21;;;;;;;19.13;5.77;;;31.80;99.90;;;;;;5033609;28;20317;-67
2021/07/16 12:07:49;;;;;;;20.83;5.93;;;31.50;99.90;;;;;;5035093;28;20253;-67
2021/07/16 12:10:20;;;;;;;19.63;5.53;;;31.30;99.90;;;;;;5039199;28;21240;-67
2021/07/16 12:12:49;;;;;;;16.73;5.07;;;31.20;99.90;;;;;;5033706;28;21178;-67
2021/07/16 12:15:20;;;;;;;21.60;5.87;;;31.00;99.90;;;;;;5035447;28;20250;-67
2021/07/16 12:17:53;;;;;;;16.20;5.33;;;30.50;99.90;;;;;;5034773;28;20250;-67
2021/07/16 12:20:25;;;;;;;19.23;5.37;;;30.20;99.90;;;;;;5036281;28;20568;-67
2021/07/16 12:22:53;;;;;;;16.70;5.57;;;30.40;99.90;;;;;;5038925;28;20242;-67
2021/07/16 12:25:23;;;;;;;18.53;5.10;;;30.40;99.90;;;;;;5034594;28;20234;-67
2021/07/16 12:28:05;;;;;;;17.70;5.87;;;30.10;99.90;;;;;;5036139;28;20251;-67
2021/07/16 12:30:34;;;;;;;19.77;5.47;;;29.90;99.90;;;;;;5037613;28;20315;-67
2021/07/16 12:33:04;;;;;;;20.03;5.97;;;29.80;99.90;;;;;;5033623;28;20306;-67
2021/07/16 12:35:36;;;;;;;23.03;5.90;;;29.60;99.90;;;;;;5034336;28;20239;-67
2021/07/16 12:38:06;;;;;;;17.57;5.90;;;29.80;99.90;;;;;;5036502;28;21405;-67
2021/07/16 12:40:36;;;;;;;18.33;5.43;;;30.00;99.90;;;;;;5031667;28;20239;-67
2021/07/16 12:43:07;;;;;;;17.70;5.97;;;29.70;99.90;;;;;;5032158;28;20247;-68
2021/07/16 12:45:41;;;;;;;18.23;5.30;;;29.80;99.90;;;;;;5036864;28;21285;-67
2021/07/16 12:48:26;;;;;;;17.23;5.50;;;29.70;99.90;;;;;;5040285;28;20246;-67
2021/07/16 12:51:08;;;;;;;17.27;5.57;;;29.60;99.90;;;;;;5040303;28;20244;-67
2021/07/16 12:53:37;;;;;;;16.33;5.23;;;29.40;99.90;;;;;;5038007;28;20243;-67